Latest Weather Observations for Whyalla

IDS60801

Issued at 1:35 pm CST Tuesday 23 September 2014 (issued every 30 minutes, with the page automatically refreshed every 10 minutes)

About weather observations | Map of weather stations | Latest weather observations for SA | Other Formats
Station Details ID: 018120 Name: WHYALLA AERO Lat: -33.05 Lon: 137.52 Height: 6.5 m
Data from the previous 72 hours. | See also: Recent months at Whyalla
Date/Time
CST
Temp
°C
App
Temp
°C
Dew
Point
Rel
Hum
%
Delta-T
°C
Wind Press
QNH
hPa
Press
MSL
hPa
Rain
since 9 am
mm
Dir
 
Spd
km/h
Gust
km/h
Spd
kts
Gust
kts
23/01:30pm 27.5 21.2 5.7 25 11.3 N 28 37 15 20 1014.0 1014.0 0.0
23/01:00pm 26.2 20.3 5.7 27 10.5 N 26 39 14 21 1014.5 1014.5 0.0
23/12:30pm 25.4 20.1 6.6 30 9.8 NNE 24 37 13 20 1014.9 1014.9 0.0
23/12:00pm 25.0 20.3 7.6 33 9.2 N 22 32 12 17 1015.5 1015.5 0.0
23/11:30am 24.4 19.6 7.5 34 8.9 N 22 35 12 19 1016.1 1016.1 0.0
23/11:00am 25.5 20.6 8.5 34 9.2 NE 24 37 13 20 1016.5 1016.5 0.0
23/10:30am 23.9 19.0 8.3 37 8.3 NNE 24 37 13 20 1017.1 1017.1 0.0
23/10:00am 23.5 17.9 8.8 39 7.9 N 28 35 15 19 1017.5 1017.5 0.0
23/09:30am 22.4 17.7 9.2 43 7.1 NNE 24 33 13 18 1017.8 1017.8 0.0
23/09:00am 22.0 17.0 9.5 45 6.7 NNE 26 41 14 22 1017.9 1017.9 0.0
23/08:30am 20.5 16.1 9.1 48 6.0 NE 22 35 12 19 1018.3 1018.3 0.0
23/08:00am 19.6 15.3 9.2 51 5.5 NE 22 30 12 16 1018.4 1018.4 0.0
23/07:30am 18.5 14.7 9.0 54 4.9 ENE 19 24 10 13 1018.5 1018.5 0.0
23/07:00am 17.0 13.9 8.9 59 4.2 ENE 15 20 8 11 1018.4 1018.4 0.0
23/06:30am 15.3 13.0 7.3 59 3.9 ENE 9 13 5 7 1018.6 1018.6 0.0
23/06:00am 14.7 12.5 6.3 57 4.0 N 7 9 4 5 1018.6 1018.6 0.0
23/05:30am 15.6 13.0 6.1 53 4.6 NNE 9 15 5 8 1018.5 1018.5 0.0
23/05:00am 15.3 11.3 4.9 50 4.9 NE 15 19 8 10 1018.5 1018.5 0.0
23/04:30am 16.1 12.5 5.1 48 5.2 NE 13 17 7 9 1018.6 1018.6 0.0
23/04:00am 16.6 13.3 4.3 44 5.8 NE 11 17 6 9 1018.6 1018.6 0.0
23/03:30am 16.5 12.9 2.9 40 6.2 NE 11 15 6 8 1018.6 1018.6 0.0
23/03:00am 16.9 13.1 1.8 36 6.7 NE 11 17 6 9 1018.6 1018.6 0.0
23/02:30am 16.3 12.0 1.2 36 6.6 NNE 13 19 7 10 1018.7 1018.7 0.0
23/02:00am 16.6 12.2 0.3 33 7.0 NE 13 19 7 10 1018.9 1018.9 0.0
23/01:30am 16.0 11.9 -0.2 33 6.9 NNE 11 15 6 8 1019.1 1019.1 0.0
23/01:00am 14.8 10.7 -0.5 35 6.4 NNE 11 13 6 7 1019.4 1019.4 0.0
23/12:30am 16.7 12.9 -0.5 31 7.3 NNE 9 11 5 6 1019.6 1019.6 0.0
23/12:00am 17.7 13.2 -0.5 29 7.8 NNE 13 15 7 8 1019.6 1019.6 0.0
 
Date/Time
CST
Temp
°C
App
Temp
°C
Dew
Point
Rel
Hum
%
Delta-T
°C
Wind Press
QNH
hPa
Press
MSL
hPa
Rain
since 9 am
mm
Dir
 
Spd
km/h
Gust
km/h
Spd
kts
Gust
kts
22/11:30pm 15.1 11.9 -0.6 34 6.5 NNE 6 9 3 5 1019.7 1019.7 0.0
22/11:00pm 18.1 13.5 -0.7 28 8.0 NNE 13 17 7 9 1019.9 1019.9 0.0
22/10:30pm 19.2 14.6 -0.7 26 8.6 NNE 13 19 7 10 1020.2 1020.2 0.0
22/10:00pm 18.9 13.9 -1.0 26 8.5 NNE 15 19 8 10 1020.3 1020.3 0.0
22/09:30pm 19.8 15.2 -0.8 25 8.9 NNE 13 17 7 9 1020.5 1020.5 0.0
22/09:00pm 19.9 14.7 -0.1 26 8.8 NNE 17 20 9 11 1020.4 1020.4 0.0
22/08:30pm 19.0 14.9 2.0 32 7.7 NNE 13 15 7 8 1020.2 1020.2 0.0
22/08:00pm 20.0 16.7 2.4 31 8.2 NNE 9 13 5 7 1019.8 1019.8 0.0
22/07:30pm 18.5 15.4 5.4 42 6.4 NE 11 13 6 7 1019.4 1019.4 0.0
22/07:00pm 19.2 16.0 4.9 39 6.9 E 11 11 6 6 1019.2 1019.2 0.0
22/06:30pm 20.5 16.9 4.9 36 7.6 E 13 17 7 9 1018.8 1018.8 0.0
22/06:00pm 21.6 18.2 5.9 36 7.9 E 13 19 7 10 1018.5 1018.5 0.0
22/05:30pm 23.1 19.0 4.1 29 9.3 E 15 20 8 11 1018.3 1018.3 0.0
22/05:00pm 25.5 20.9 1.6 21 11.4 E 15 19 8 10 1018.2 1018.2 0.0
22/04:30pm 27.9 21.2 -7.9 9 14.6 NE 20 32 11 17 1018.0 1018.0 0.0
22/04:00pm 28.1 20.8 -6.3 10 14.5 NE 24 39 13 21 1017.9 1017.9 0.0
22/03:30pm 28.0 20.7 -6.4 10 14.4 NE 24 39 13 21 1018.3 1018.3 0.0
22/03:00pm 27.7 20.4 -6.6 10 14.3 NNE 24 37 13 20 1018.6 1018.6 0.0
22/02:30pm 27.3 20.4 -5.7 11 13.9 NNE 22 35 12 19 1019.2 1019.2 0.0
22/02:00pm 27.0 19.9 -8.5 9 14.2 NNE 22 32 12 17 1019.7 1019.7 0.0
22/01:30pm 26.9 19.1 -7.3 10 13.9 N 26 37 14 20 1020.2 1020.2 0.0
22/01:00pm 27.9 21.2 -4.1 12 14.0 N 22 35 12 19 1020.6 1020.6 0.0
22/12:30pm 26.3 17.8 -6.5 11 13.5 N 30 44 16 24 1021.2 1021.2 0.0
22/12:00pm 26.5 20.1 -5.2 12 13.4 NNE 20 35 11 19 1021.7 1021.7 0.0
22/11:30am 24.9 16.8 -6.4 12 12.7 N 28 41 15 22 1022.4 1022.4 0.0
22/11:04am 25.2 16.9 -5.1 13 12.7 NNE 30 48 16 26 1022.9 1022.9 0.0
22/11:00am 24.7 16.8 -4.6 14 12.3 NNE 28 44 15 24 1023.1 1023.1 0.0
22/10:30am 24.2 16.7 -5.0 14 12.1 NNE 26 43 14 23 1023.7 1023.7 0.0
22/10:00am 23.5 17.1 -4.6 15 11.7 NNE 20 32 11 17 1024.1 1024.1 0.0
22/09:30am 21.7 16.2 -2.2 20 10.2 NNE 17 24 9 13 1024.4 1024.4 0.0
22/09:00am 20.6 17.1 1.0 27 8.8 NNE 9 15 5 8 1024.6 1024.6 0.0
22/08:30am 18.8 17.2 2.6 34 7.4 CALM 0 0 0 0 1024.8 1024.8 0.0
22/08:00am 15.0 12.9 1.5 40 5.9 NNW 2 6 1 3 1024.8 1024.8 0.0
22/07:30am 10.4 7.6 1.8 55 3.6 NW 6 7 3 4 1024.8 1024.8 0.0
22/07:00am 6.2 3.0 0.7 68 2.2 NW 7 11 4 6 1024.8 1024.8 0.0
22/06:30am 3.8 0.2 0.3 78 1.3 WNW 9 11 5 6 1024.7 1024.7 0.0
22/06:00am 3.5 0.4 -0.1 77 1.3 NW 6 13 3 7 1024.6 1024.6 0.0
22/05:30am 4.1 0.5 0.6 78 1.3 NNW 9 15 5 8 1024.2 1024.2 0.0
22/05:00am 4.0 0.0 0.2 76 1.4 NW 11 17 6 9 1024.3 1024.3 0.0
22/04:30am 4.5 0.9 0.6 76 1.5 NW 9 11 5 6 1024.1 1024.1 0.0
22/04:00am 4.1 0.1 0.6 78 1.3 WNW 11 15 6 8 1023.9 1023.9 0.0
22/03:30am 5.3 2.3 1.8 78 1.4 NW 7 9 4 5 1023.7 1023.7 0.0
22/03:00am 5.2 2.1 1.5 77 1.5 NW 7 11 4 6 1024.0 1024.0 0.0
22/02:30am 6.2 3.2 2.3 76 1.6 NNW 7 9 4 5 1024.1 1024.1 0.0
22/02:00am 6.4 3.6 2.9 78 1.5 NNW 7 9 4 5 1024.4 1024.4 0.0
22/01:30am 6.5 3.3 2.8 77 1.5 NW 9 11 5 6 1024.9 1024.9 0.0
22/01:00am 6.7 3.5 3.0 77 1.5 WNW 9 11 5 6 1025.1 1025.1 0.0
22/12:30am 6.9 3.3 3.2 77 1.5 WNW 11 13 6 7 1024.9 1024.9 0.0
22/12:00am 8.3 5.6 3.9 74 1.9 W 7 9 4 5 1024.7 1024.7 0.0
 
Date/Time
CST
Temp
°C
App
Temp
°C
Dew
Point
Rel
Hum
%
Delta-T
°C
Wind Press
QNH
hPa
Press
MSL
hPa
Rain
since 9 am
mm
Dir
 
Spd
km/h
Gust
km/h
Spd
kts
Gust
kts
21/11:30pm 8.4 5.4 4.0 74 1.9 W 9 11 5 6 1024.7 1024.7 0.0
21/11:00pm 8.3 4.9 3.8 73 1.9 WNW 11 13 6 7 1024.9 1024.9 0.0
21/10:30pm 9.8 8.7 5.2 73 2.1 CALM 0 0 0 0 1025.0 1025.0 0.0
21/10:00pm 11.1 10.3 6.3 72 2.2 CALM 0 2 0 1 1025.2 1025.2 0.0
21/09:30pm 12.1 11.4 6.8 70 2.5 CALM 0 4 0 2 1025.4 1025.4 0.0
21/09:00pm 14.5 12.6 9.1 70 2.7 S 9 13 5 7 1025.6 1025.6 0.0
21/08:30pm 15.3 12.4 8.1 62 3.6 S 13 17 7 9 1025.7 1025.7 0.0
21/08:00pm 15.3 12.7 7.8 61 3.7 S 11 15 6 8 1025.8 1025.8 0.0
21/07:30pm 16.0 12.9 7.2 56 4.3 S 13 15 7 8 1025.6 1025.6 0.0
21/07:00pm 16.9 13.5 6.1 49 5.3 SSW 13 15 7 8 1025.5 1025.5 0.0
21/06:30pm 18.0 14.8 4.9 42 6.2 SSW 11 13 6 7 1025.0 1025.0 0.0
21/06:00pm 20.2 16.4 3.9 34 7.7 S 13 17 7 9 1024.8 1024.8 0.0
21/05:30pm 21.9 16.8 3.1 29 8.9 S 19 22 10 12 1024.6 1024.6 0.0
21/05:00pm 22.3 17.0 1.9 26 9.5 S 19 22 10 12 1024.6 1024.6 0.0
21/04:30pm 22.8 18.2 1.8 25 9.8 S 15 19 8 10 1024.5 1024.5 0.0
21/04:00pm 23.0 18.5 1.9 25 9.9 S 15 19 8 10 1024.5 1024.5 0.0
21/03:30pm 23.1 18.5 1.4 24 10.0 SSE 15 20 8 11 1024.6 1024.6 0.0
21/03:00pm 23.1 18.0 0.9 23 10.2 SSE 17 20 9 11 1025.1 1025.1 0.0
21/02:30pm 22.9 17.8 0.7 23 10.1 SE 17 20 9 11 1025.4 1025.4 0.0
21/02:00pm 23.3 18.6 1.0 23 10.3 E 15 20 8 11 1025.7 1025.7 0.0
21/01:30pm 23.0 17.9 0.8 23 10.1 E 17 22 9 12 1026.2 1026.2 0.0
21/01:00pm 23.3 18.2 1.0 23 10.3 E 17 20 9 11 1026.7 1026.7 0.0
21/12:30pm 21.8 16.6 2.5 28 9.0 ESE 19 24 10 13 1027.4 1027.4 0.0
21/12:00pm 21.9 16.6 2.1 27 9.2 ESE 19 22 10 12 1027.8 1027.8 0.0
21/11:30am 21.2 16.3 2.0 28 8.8 E 17 22 9 12 1028.4 1028.4 0.0
21/11:00am 21.2 16.3 2.0 28 8.9 E 17 22 9 12 1028.6 1028.6 0.0
21/10:30am 21.3 17.1 1.6 27 9.0 ESE 13 20 7 11 1028.8 1028.8 0.0
21/10:00am 20.8 17.4 4.0 33 8.1 E 11 17 6 9 1029.0 1029.0 0.0
21/09:30am 20.9 18.0 1.2 27 8.9 NNW 6 13 3 7 1029.1 1029.1 0.0
21/09:00am 20.0 16.8 -0.6 25 8.9 N 6 13 3 7 1029.1 1029.1 0.0
21/08:30am 18.2 15.1 0.4 30 7.7 NW 6 9 3 5 1029.0 1029.0 0.0
21/08:00am 15.6 12.5 1.3 38 6.2 WNW 7 9 4 5 1028.7 1028.7 0.0
21/07:30am 12.3 9.4 1.3 47 4.6 NW 6 7 3 4 1028.4 1028.4 0.0
21/07:00am 8.6 5.5 1.5 61 2.9 NNW 7 9 4 5 1028.2 1028.2 0.0
21/06:30am 6.2 3.0 0.7 68 2.1 NNW 7 9 4 5 1027.8 1027.8 0.0
21/06:00am 6.5 2.5 0.8 67 2.2 NW 11 13 6 7 1027.4 1027.4 0.0
21/05:30am 5.9 1.6 0.7 69 2.0 NW 13 13 7 7 1027.2 1027.2 0.0
21/05:00am 6.2 2.6 0.7 68 2.2 NW 9 13 5 7 1026.8 1026.8 0.0
21/04:30am 5.9 2.3 0.7 69 2.0 NW 9 15 5 8 1026.4 1026.4 0.0
21/04:00am 6.8 2.5 0.9 66 2.3 NNW 13 15 7 8 1026.2 1026.2 0.0
21/03:30am 6.6 3.0 0.9 67 2.2 NW 9 11 5 6 1026.1 1026.1 0.0
21/03:00am 7.3 3.8 1.0 64 2.5 NW 9 13 5 7 1026.0 1026.0 0.0
21/02:30am 9.0 5.6 1.7 60 3.0 W 9 13 5 7 1025.8 1025.8 0.0
21/02:00am 9.4 5.7 2.3 61 3.0 W 11 17 6 9 1025.9 1025.9 0.0
21/01:30am 12.8 10.1 2.9 51 4.3 SE 6 7 3 4 1026.0 1026.0 0.0
21/01:00am 14.5 11.3 3.0 46 5.2 E 9 11 5 6 1026.0 1026.0 0.0
21/12:30am 14.7 11.1 2.9 45 5.3 ENE 11 15 6 8 1026.1 1026.1 0.0
21/12:00am 15.1 11.6 5.3 52 4.6 E 13 15 7 8 1026.1 1026.1 0.0
 
Date/Time
CST
Temp
°C
App
Temp
°C
Dew
Point
Rel
Hum
%
Delta-T
°C
Wind Press
QNH
hPa
Press
MSL
hPa
Rain
since 9 am
mm
Dir
 
Spd
km/h
Gust
km/h
Spd
kts
Gust
kts
20/11:30pm 15.5 12.4 3.6 45 5.4 ENE 9 13 5 7 1026.0 1026.0 0.0
20/11:00pm 16.6 11.4 2.6 39 6.3 ENE 19 24 10 13 1025.9 1025.9 0.0
20/10:30pm 15.0 12.3 7.3 60 3.8 ENE 11 15 6 8 1025.8 1025.8 0.0
20/10:00pm 15.6 13.3 9.1 65 3.3 ENE 11 15 6 8 1025.7 1025.7 0.0
20/09:30pm 16.5 14.1 8.7 60 4.0 E 11 15 6 8 1025.5 1025.5 0.0
20/09:00pm 17.5 14.8 7.3 51 5.1 E 11 17 6 9 1025.2 1025.2 0.0
20/08:30pm 17.8 14.3 7.2 50 5.3 ESE 15 17 8 9 1024.9 1024.9 0.0
20/08:00pm 18.0 14.9 7.4 50 5.3 ESE 13 19 7 10 1024.7 1024.7 0.0
20/07:30pm 17.2 15.2 8.6 57 4.4 E 9 15 5 8 1024.4 1024.4 0.0
20/07:00pm 17.8 15.3 8.4 54 4.8 E 11 13 6 7 1023.9 1023.9 0.0
20/06:30pm 18.6 15.8 6.8 46 5.9 E 11 13 6 7 1023.4 1023.4 0.0
20/06:00pm 20.1 16.6 5.4 38 7.2 E 13 17 7 9 1023.0 1023.0 0.0
20/05:30pm 21.5 17.0 4.1 32 8.4 E 17 22 9 12 1022.7 1022.7 0.0
20/05:00pm 22.0 17.0 3.6 30 8.9 E 19 26 10 14 1022.4 1022.4 0.0
20/04:30pm 22.7 17.4 2.8 27 9.4 E 20 26 11 14 1022.3 1022.3 0.0
20/04:00pm 22.8 17.0 2.3 26 9.7 E 22 28 12 15 1022.3 1022.3 0.0
20/03:30pm 22.9 17.1 2.4 26 9.7 E 22 32 12 17 1022.1 1022.1 0.0
20/03:00pm 23.4 17.2 2.3 25 10.0 E 24 33 13 18 1022.1 1022.1 0.0
20/02:30pm 24.0 17.3 1.6 23 10.5 E 26 33 14 18 1022.1 1022.1 0.0
20/02:00pm 24.2 17.8 1.2 22 10.8 E 24 32 13 17 1022.3 1022.3 0.0

Other Formats:

Comma delimited format used in spreadsheet applications
http://www.bom.gov.au/fwo/IDS60801/IDS60801.95664.axf

JavaScript Object Notation format (JSON) in row-major order
http://www.bom.gov.au/fwo/IDS60801/IDS60801.95664.json